Time;durP1;ratioP1;P1;durP2;ratioP2;P2;SDS_P1;SDS_P2;PMS_P1;PMS_P2;Temp;Humidity;BMP_temperature;BMP_pressure;BME280_temperature;BME280_humidity;BME280_pressure;Samples;Min_cycle;Max_cycle;Signal;HPM_P1;HPM_P2
2022/09/10 00:01:03;;;;;;;21.15;12.45;;;19.20;99.90;;;;;;5116486;28;20028;-74
2022/09/10 00:03:30;;;;;;;40.60;11.40;;;19.20;99.90;;;;;;5104166;28;20115;-74
2022/09/10 00:05:58;;;;;;;22.73;12.82;;;19.20;99.90;;;;;;5096690;28;20043;-74
2022/09/10 00:08:25;;;;;;;19.52;10.93;;;19.10;99.90;;;;;;5096361;28;20119;-74
2022/09/10 00:10:54;;;;;;;20.17;11.70;;;19.10;99.90;;;;;;5095728;28;20094;-74
2022/09/10 00:13:22;;;;;;;22.15;9.57;;;19.10;99.90;;;;;;5096028;28;20113;-73
2022/09/10 00:15:51;;;;;;;16.38;9.75;;;19.10;99.90;;;;;;5096129;28;20097;-73
2022/09/10 00:18:20;;;;;;;17.00;9.98;;;19.00;99.90;;;;;;5108812;28;20042;-73
2022/09/10 00:20:51;;;;;;;41.58;10.88;;;19.10;99.90;;;;;;5098756;28;20036;-74
2022/09/10 00:23:20;;;;;;;43.28;11.50;;;19.10;99.90;;;;;;5115924;28;20054;-74
2022/09/10 00:25:48;;;;;;;24.50;10.18;;;19.10;99.90;;;;;;5113876;28;20359;-74
2022/09/10 00:28:16;;;;;;;18.88;11.02;;;19.00;99.90;;;;;;5097646;28;20043;-74
2022/09/10 00:30:45;;;;;;;21.83;12.15;;;19.00;99.90;;;;;;5116434;28;20055;-75
2022/09/10 00:33:13;;;;;;;21.17;12.45;;;19.00;99.90;;;;;;5115397;28;20424;-74
2022/09/10 00:35:40;;;;;;;23.90;12.60;;;19.00;99.90;;;;;;5097039;28;20047;-74
2022/09/10 00:38:08;;;;;;;16.17;13.20;;;19.00;99.90;;;;;;5110446;28;20499;-73
2022/09/10 00:40:37;;;;;;;26.08;12.52;;;19.00;99.90;;;;;;5096800;28;20047;-73
2022/09/10 00:43:06;;;;;;;24.70;12.57;;;18.90;99.90;;;;;;5105937;28;20415;-74
2022/09/10 00:45:35;;;;;;;19.45;12.27;;;18.90;99.90;;;;;;5115103;28;20048;-74
2022/09/10 00:48:05;;;;;;;155.77;16.67;;;18.80;99.90;;;;;;5115131;28;20075;-74
2022/09/10 00:50:36;;;;;;;74.28;13.98;;;18.80;99.90;;;;;;5116314;28;20040;-74
2022/09/10 00:53:06;;;;;;;61.60;13.30;;;18.70;99.90;;;;;;5097372;28;20052;-72
2022/09/10 00:55:35;;;;;;;25.95;13.50;;;18.70;99.90;;;;;;5097671;28;20050;-73
2022/09/10 00:58:06;;;;;;;25.60;13.10;;;18.70;99.90;;;;;;5113593;28;20505;-73
2022/09/10 01:00:35;;;;;;;38.00;12.48;;;18.70;99.90;;;;;;5116119;28;20047;-73
2022/09/10 01:03:06;;;;;;;24.83;14.02;;;18.70;99.90;;;;;;5088892;28;20517;-73
2022/09/10 01:05:33;;;;;;;26.25;13.88;;;18.60;99.90;;;;;;5097446;28;20453;-72
2022/09/10 01:08:01;;;;;;;67.68;16.05;;;18.70;99.90;;;;;;5078392;28;20040;-72
2022/09/10 01:10:31;;;;;;;20.17;13.57;;;18.70;99.90;;;;;;5079591;28;20055;-73
2022/09/10 01:13:20;;;;;;;178.52;13.88;;;18.60;99.90;;;;;;5095135;28;20055;-73
2022/09/10 01:15:58;;;;;;;120.28;13.90;;;18.60;99.90;;;;;;5077039;28;20044;-73
2022/09/10 01:18:36;;;;;;;33.45;12.15;;;18.60;99.90;;;;;;5076710;28;20139;-72
2022/09/10 01:21:23;;;;;;;24.98;13.50;;;18.60;99.90;;;;;;5084946;28;20052;-72
2022/09/10 01:24:29;;;;;;;88.30;11.45;;;18.60;99.90;;;;;;5115010;28;20039;-72
2022/09/10 01:27:29;;;;;;;70.25;10.48;;;18.50;99.90;;;;;;5096218;28;20070;-73
2022/09/10 01:30:05;;;;;;;50.75;11.77;;;18.50;99.90;;;;;;5096584;28;20117;-74
2022/09/10 01:32:40;;;;;;;48.55;12.25;;;18.40;99.90;;;;;;5096460;28;20088;-73
2022/09/10 01:35:15;;;;;;;113.05;14.43;;;18.50;99.90;;;;;;5114996;28;20108;-73
2022/09/10 01:37:47;;;;;;;75.65;11.18;;;18.50;99.90;;;;;;5097113;28;20054;-73
2022/09/10 01:40:16;;;;;;;150.35;12.10;;;18.40;99.90;;;;;;5087176;28;20058;-74
2022/09/10 01:42:45;;;;;;;151.30;12.73;;;18.40;99.90;;;;;;5076109;28;20077;-74
2022/09/10 01:45:15;;;;;;;118.57;12.38;;;18.40;99.90;;;;;;5094111;28;20047;-73
2022/09/10 01:48:17;;;;;;;54.05;11.13;;;18.30;99.90;;;;;;5096739;28;20527;-74
2022/09/10 01:50:56;;;;;;;62.97;10.35;;;18.20;99.90;;;;;;5096419;28;20043;-73
2022/09/10 01:53:40;;;;;;;18.88;9.27;;;18.20;99.90;;;;;;5084419;28;20487;-74
2022/09/10 01:56:20;;;;;;;35.40;9.05;;;18.30;99.90;;;;;;5076476;28;20036;-73
2022/09/10 01:58:49;;;;;;;18.85;10.40;;;18.20;99.90;;;;;;5076136;28;20124;-74
2022/09/10 02:01:29;;;;;;;17.50;9.68;;;18.10;99.90;;;;;;5076208;28;20446;-74
2022/09/10 02:04:01;;;;;;;12.93;8.23;;;18.20;99.90;;;;;;5090578;28;20139;-74
2022/09/10 02:06:32;;;;;;;13.27;8.13;;;18.10;99.90;;;;;;5096160;28;20040;-73
2022/09/10 02:09:01;;;;;;;11.85;8.70;;;18.10;99.90;;;;;;5096074;28;20043;-73
2022/09/10 02:11:31;;;;;;;33.20;8.05;;;18.10;99.90;;;;;;5095940;28;20448;-73
2022/09/10 02:14:02;;;;;;;29.35;8.75;;;18.10;99.90;;;;;;5095951;28;20047;-74
2022/09/10 02:17:03;;;;;;;31.80;8.40;;;18.00;99.90;;;;;;5067042;28;20047;-74
2022/09/10 02:19:31;;;;;;;53.08;9.55;;;18.00;99.90;;;;;;5075565;28;20506;-73
2022/09/10 02:21:59;;;;;;;50.35;10.15;;;18.00;99.90;;;;;;5093707;28;20048;-73
2022/09/10 02:24:27;;;;;;;39.72;9.60;;;17.90;99.90;;;;;;5114246;28;20118;-73
2022/09/10 02:26:54;;;;;;;18.33;9.85;;;17.90;99.90;;;;;;5096170;28;20495;-73
2022/09/10 02:29:23;;;;;;;29.35;10.82;;;17.90;99.90;;;;;;5096251;28;20070;-72
2022/09/10 02:31:50;;;;;;;14.13;11.20;;;17.90;99.90;;;;;;5095896;28;20047;-73
2022/09/10 02:34:20;;;;;;;21.95;12.25;;;17.90;99.90;;;;;;5095601;28;20044;-73
2022/09/10 02:36:49;;;;;;;20.83;11.23;;;18.00;99.90;;;;;;5095036;28;20078;-73
2022/09/10 02:39:16;;;;;;;19.98;12.32;;;17.90;99.90;;;;;;5088930;28;20550;-74
2022/09/10 02:41:46;;;;;;;18.25;11.73;;;18.00;99.90;;;;;;5103160;28;20043;-74
2022/09/10 02:44:14;;;;;;;17.73;12.50;;;18.00;99.90;;;;;;5103919;28;20051;-74
2022/09/10 02:46:43;;;;;;;29.30;12.73;;;18.00;99.90;;;;;;5111749;28;20583;-74
2022/09/10 02:49:11;;;;;;;18.73;12.50;;;18.00;99.90;;;;;;5097914;28;20138;-74
2022/09/10 02:51:41;;;;;;;19.15;13.60;;;18.10;99.90;;;;;;5098772;28;20054;-74
2022/09/10 02:54:09;;;;;;;21.40;14.57;;;18.10;99.90;;;;;;5095495;28;20051;-73
2022/09/10 02:56:36;;;;;;;19.60;13.05;;;18.20;99.90;;;;;;5089330;28;20138;-74
2022/09/10 02:59:05;;;;;;;18.90;13.07;;;18.20;99.90;;;;;;5104449;28;20135;-73
2022/09/10 03:01:34;;;;;;;18.63;13.50;;;18.20;99.90;;;;;;5100396;28;20418;-73
2022/09/10 03:04:04;;;;;;;20.42;14.52;;;18.20;99.90;;;;;;5094829;28;20520;-74
2022/09/10 03:06:32;;;;;;;18.70;11.75;;;18.20;99.90;;;;;;5084048;28;20070;-73
2022/09/10 03:09:01;;;;;;;18.83;11.45;;;18.20;99.90;;;;;;5079662;28;20044;-74
2022/09/10 03:11:29;;;;;;;19.70;12.60;;;18.10;99.90;;;;;;5096881;28;20040;-74
2022/09/10 03:13:58;;;;;;;18.23;12.60;;;18.10;99.90;;;;;;5078704;28;20052;-74
2022/09/10 03:16:26;;;;;;;21.75;15.20;;;18.20;99.90;;;;;;5079346;28;20101;-74
2022/09/10 03:18:53;;;;;;;34.22;18.83;;;18.30;99.90;;;;;;5079117;28;20048;-74
2022/09/10 03:21:23;;;;;;;43.00;21.67;;;18.30;99.90;;;;;;5094313;28;20054;-73
2022/09/10 03:23:54;;;;;;;46.05;23.25;;;18.40;99.90;;;;;;5099672;28;20043;-73
2022/09/10 03:26:27;;;;;;;54.00;24.13;;;18.40;99.90;;;;;;5099505;28;20051;-73
2022/09/10 03:28:55;;;;;;;62.80;26.92;;;18.40;99.90;;;;;;5099361;28;20051;-73
2022/09/10 03:31:25;;;;;;;65.88;25.98;;;18.50;99.90;;;;;;5099108;28;20142;-73
2022/09/10 03:33:53;;;;;;;71.82;27.83;;;18.50;99.90;;;;;;5116325;28;20368;-73
2022/09/10 03:36:21;;;;;;;50.92;25.13;;;18.60;99.90;;;;;;5117957;28;20043;-74
2022/09/10 03:38:50;;;;;;;51.80;25.58;;;18.60;99.90;;;;;;5099552;28;20043;-74
2022/09/10 03:41:17;;;;;;;59.33;26.85;;;18.70;99.90;;;;;;5080671;28;20093;-74
2022/09/10 03:43:48;;;;;;;67.05;29.48;;;18.70;99.90;;;;;;5095613;28;20035;-73
2022/09/10 03:46:15;;;;;;;65.20;29.02;;;18.70;99.90;;;;;;5101518;28;20082;-73
2022/09/10 03:48:45;;;;;;;63.28;28.05;;;18.70;99.90;;;;;;5099327;28;20043;-73
2022/09/10 03:51:14;;;;;;;57.17;27.88;;;18.70;99.90;;;;;;5099340;28;20429;-73
2022/09/10 03:53:42;;;;;;;47.65;24.70;;;18.80;99.90;;;;;;5098822;28;20076;-74
2022/09/10 03:56:10;;;;;;;46.97;24.67;;;18.80;99.90;;;;;;5099231;28;20042;-75
2022/09/10 03:58:38;;;;;;;50.90;24.90;;;18.80;99.90;;;;;;5097958;28;20062;-75
2022/09/10 04:01:07;;;;;;;43.33;25.23;;;18.80;99.90;;;;;;5090507;28;20044;-75
2022/09/10 04:03:38;;;;;;;45.80;25.48;;;18.80;99.90;;;;;;5078456;28;20056;-74
2022/09/10 04:06:09;;;;;;;43.53;24.25;;;18.80;99.90;;;;;;5079471;28;20068;-74
2022/09/10 04:08:37;;;;;;;61.08;26.15;;;18.80;99.90;;;;;;5096476;28;20498;-75
2022/09/10 04:11:07;;;;;;;47.47;25.58;;;18.80;99.90;;;;;;5078656;28;20088;-74
2022/09/10 04:13:35;;;;;;;49.70;24.05;;;18.80;99.90;;;;;;5096013;28;20043;-75
2022/09/10 04:16:03;;;;;;;50.35;25.83;;;18.90;99.90;;;;;;5077591;28;20040;-74
2022/09/10 04:18:33;;;;;;;51.60;29.40;;;18.80;99.90;;;;;;5091534;28;20071;-74
2022/09/10 04:21:03;;;;;;;43.80;24.15;;;18.80;99.90;;;;;;5098479;28;20047;-75
2022/09/10 04:23:31;;;;;;;35.40;20.88;;;18.80;99.90;;;;;;5089578;28;20414;-75
2022/09/10 04:26:00;;;;;;;30.73;18.55;;;18.80;99.90;;;;;;5090217;28;20040;-75
2022/09/10 04:28:29;;;;;;;29.55;16.58;;;18.90;99.90;;;;;;5087690;28;20044;-75
2022/09/10 04:30:58;;;;;;;29.20;16.85;;;18.90;99.90;;;;;;5113648;28;20620;-74
2022/09/10 04:33:26;;;;;;;28.00;16.95;;;18.90;99.90;;;;;;5098938;28;20499;-74
2022/09/10 04:35:59;;;;;;;25.33;15.13;;;18.90;99.90;;;;;;5106687;28;20092;-75
2022/09/10 04:38:29;;;;;;;20.05;14.10;;;18.90;99.90;;;;;;5098103;28;20097;-75
2022/09/10 04:40:57;;;;;;;25.65;15.90;;;18.90;99.90;;;;;;5098464;28;20391;-74
2022/09/10 04:43:24;;;;;;;28.98;12.10;;;19.00;99.90;;;;;;5095924;28;20040;-74
2022/09/10 04:45:53;;;;;;;15.60;10.10;;;19.00;99.90;;;;;;5115958;28;20089;-74
2022/09/10 04:48:20;;;;;;;18.42;10.50;;;19.00;99.90;;;;;;5107793;28;20525;-74
2022/09/10 04:50:48;;;;;;;16.98;10.50;;;19.10;99.90;;;;;;5114840;28;20071;-74
2022/09/10 04:53:20;;;;;;;13.65;9.57;;;19.20;99.90;;;;;;5111190;28;20149;-74
2022/09/10 04:55:50;;;;;;;17.45;9.88;;;19.20;99.90;;;;;;5107750;28;20063;-74
2022/09/10 04:58:18;;;;;;;17.58;9.63;;;19.20;99.90;;;;;;5098281;28;20055;-74
2022/09/10 05:00:47;;;;;;;14.30;8.93;;;19.20;99.90;;;;;;5099536;28;20056;-74
2022/09/10 05:03:14;;;;;;;12.68;7.00;;;19.30;99.90;;;;;;5106787;28;20048;-74
2022/09/10 05:05:46;;;;;;;12.27;7.50;;;19.30;99.90;;;;;;5079302;28;20384;-75
2022/09/10 05:08:14;;;;;;;14.73;7.38;;;19.40;99.90;;;;;;5080316;28;20048;-75
2022/09/10 05:10:48;;;;;;;27.20;8.10;;;19.40;99.90;;;;;;5076890;28;20047;-75
2022/09/10 05:13:16;;;;;;;11.85;6.47;;;19.50;99.90;;;;;;5076735;28;20066;-74
2022/09/10 05:15:45;;;;;;;12.63;5.70;;;19.60;99.90;;;;;;5076818;28;20052;-75
2022/09/10 05:18:15;;;;;;;11.43;5.10;;;19.60;99.90;;;;;;5088683;28;20051;-74
2022/09/10 05:20:43;;;;;;;11.25;7.78;;;19.70;99.90;;;;;;5097673;28;20048;-75
2022/09/10 05:23:11;;;;;;;16.02;5.57;;;19.60;99.90;;;;;;5113588;28;20048;-75
2022/09/10 05:25:39;;;;;;;11.43;5.65;;;19.60;99.90;;;;;;5084776;28;20049;-75
2022/09/10 05:28:08;;;;;;;10.82;5.75;;;19.50;99.90;;;;;;5096097;28;20043;-75
2022/09/10 05:30:36;;;;;;;9.45;5.95;;;19.30;99.90;;;;;;5115940;28;20077;-75
2022/09/10 05:33:03;;;;;;;8.57;6.00;;;19.20;99.90;;;;;;5096147;28;20066;-75
2022/09/10 05:35:33;;;;;;;11.70;8.20;;;19.10;99.90;;;;;;5097675;28;20043;-74
2022/09/10 05:38:01;;;;;;;10.82;7.85;;;19.00;99.90;;;;;;5101226;28;20138;-75
2022/09/10 05:40:31;;;;;;;9.15;5.95;;;18.90;99.90;;;;;;5082984;28;20058;-73
2022/09/10 05:42:59;;;;;;;9.15;5.28;;;18.90;99.90;;;;;;5082250;28;20072;-73
2022/09/10 05:45:28;;;;;;;10.20;6.07;;;18.80;99.90;;;;;;5081351;28;20044;-74
2022/09/10 05:47:58;;;;;;;12.48;8.30;;;18.80;99.90;;;;;;5079165;28;20048;-73
2022/09/10 05:50:27;;;;;;;6.05;4.25;;;18.70;99.90;;;;;;5095282;28;20123;-74
2022/09/10 05:52:55;;;;;;;6.97;4.00;;;18.70;99.90;;;;;;5081415;28;20051;-75
2022/09/10 05:55:24;;;;;;;7.25;4.05;;;18.70;99.90;;;;;;5082111;28;20051;-74
2022/09/10 05:57:51;;;;;;;10.07;6.60;;;18.70;99.90;;;;;;5095264;28;20039;-74
2022/09/10 06:00:20;;;;;;;6.10;3.65;;;18.80;99.90;;;;;;5075754;28;20048;-74
2022/09/10 06:02:59;;;;;;;7.63;3.97;;;18.90;99.90;;;;;;5100563;28;20035;-75
2022/09/10 06:05:32;;;;;;;8.55;3.63;;;19.00;99.90;;;;;;5088269;28;20123;-74
2022/09/10 06:08:01;;;;;;;7.32;3.92;;;19.10;99.90;;;;;;5098130;28;20501;-74
2022/09/10 06:10:29;;;;;;;9.20;4.10;;;19.20;99.90;;;;;;5104814;28;20411;-75
2022/09/10 06:12:56;;;;;;;11.70;6.80;;;19.30;99.90;;;;;;5113706;28;20120;-74
2022/09/10 06:15:24;;;;;;;10.68;8.13;;;19.40;99.90;;;;;;5101154;28;20050;-73
2022/09/10 06:17:55;;;;;;;17.85;11.07;;;19.50;99.90;;;;;;5096356;28;20151;-74
2022/09/10 06:20:25;;;;;;;10.50;5.75;;;19.70;99.90;;;;;;5089597;28;20056;-74
2022/09/10 06:22:53;;;;;;;11.82;7.10;;;19.90;99.90;;;;;;5084742;28;20047;-74
2022/09/10 06:25:21;;;;;;;9.88;4.97;;;20.10;99.90;;;;;;5111145;28;20482;-74
2022/09/10 06:27:49;;;;;;;11.07;5.03;;;20.20;99.90;;;;;;5103680;27;20036;-74
2022/09/10 06:30:19;;;;;;;15.23;6.10;;;20.50;99.90;;;;;;5092859;28;20048;-74
2022/09/10 06:32:48;;;;;;;7.53;4.90;;;20.60;99.90;;;;;;5097751;28;20043;-73
2022/09/10 06:35:16;;;;;;;8.32;5.53;;;20.80;99.90;;;;;;5107682;28;20055;-74
2022/09/10 06:37:46;;;;;;;14.63;6.32;;;20.80;99.90;;;;;;5092531;28;20040;-74
2022/09/10 06:40:15;;;;;;;14.70;5.70;;;20.80;99.90;;;;;;5104934;28;20126;-73
2022/09/10 06:42:43;;;;;;;9.70;6.47;;;20.90;99.90;;;;;;5112561;28;20081;-73
2022/09/10 06:45:13;;;;;;;8.95;4.90;;;21.00;99.90;;;;;;5114072;28;20044;-73
2022/09/10 06:48:10;;;;;;;32.17;8.95;;;21.00;99.90;;;;;;5039601;28;20508;-73
2022/09/10 06:50:57;;;;;;;15.70;7.65;;;21.10;99.90;;;;;;5107757;28;20051;-73
2022/09/10 06:53:32;;;;;;;16.42;9.68;;;21.40;99.90;;;;;;5095059;28;20050;-74
2022/09/10 06:56:01;;;;;;;14.13;10.95;;;21.50;99.90;;;;;;5105230;28;20046;-73
2022/09/10 06:58:33;;;;;;;24.55;15.35;;;21.70;99.90;;;;;;5088125;28;20040;-74
2022/09/10 07:01:07;;;;;;;19.85;14.35;;;21.80;99.90;;;;;;5094623;28;20043;-74
2022/09/10 07:03:35;;;;;;;22.40;17.75;;;21.80;99.90;;;;;;5094870;28;20070;-73
2022/09/10 07:06:04;;;;;;;22.05;15.80;;;21.80;99.90;;;;;;5095144;28;20089;-73
2022/09/10 07:08:34;;;;;;;24.63;14.50;;;22.00;99.90;;;;;;5095477;28;20502;-74
2022/09/10 07:11:03;;;;;;;23.60;12.35;;;22.10;99.90;;;;;;5095327;28;20499;-73
2022/09/10 07:13:32;;;;;;;22.17;11.98;;;22.50;99.90;;;;;;5087225;28;20343;-75
2022/09/10 07:16:01;;;;;;;21.13;9.73;;;22.70;99.90;;;;;;5095153;28;20118;-73
2022/09/10 07:18:29;;;;;;;11.95;5.68;;;23.10;99.90;;;;;;5100039;28;20043;-74
2022/09/10 07:21:07;;;;;;;11.00;5.40;;;23.20;99.90;;;;;;5098260;28;20135;-74
2022/09/10 07:23:37;;;;;;;9.35;4.63;;;23.50;99.90;;;;;;5087538;28;20051;-74
2022/09/10 07:26:06;;;;;;;16.23;5.80;;;23.60;99.90;;;;;;5101588;28;20048;-75
2022/09/10 07:28:42;;;;;;;15.50;7.50;;;23.80;99.90;;;;;;5075407;28;20140;-74
2022/09/10 07:31:15;;;;;;;14.20;7.97;;;23.70;99.90;;;;;;5074538;28;20044;-73
2022/09/10 07:33:45;;;;;;;14.55;6.90;;;23.70;1.00;;;;;;5076131;28;20514;-74
2022/09/10 07:36:14;;;;;;;18.05;7.82;;;23.60;73.00;;;;;;5075277;28;20522;-74
2022/09/10 07:38:44;;;;;;;11.90;6.10;;;23.70;1.00;;;;;;5077766;28;20075;-73
2022/09/10 07:41:14;;;;;;;10.65;3.97;;;23.60;1.00;;;;;;5075711;28;20195;-74
2022/09/10 07:43:43;;;;;;;8.13;3.90;;;23.40;1.00;;;;;;5074577;28;20048;-74
2022/09/10 07:46:16;;;;;;;7.60;4.28;;;23.30;99.90;;;;;;5086195;28;20050;-75
2022/09/10 07:48:44;;;;;;;10.88;4.57;;;23.40;1.00;;;;;;5095003;28;20067;-74
2022/09/10 07:51:11;;;;;;;4.20;1.90;;;23.50;99.90;;;;;;5094891;28;20134;-74
2022/09/10 07:53:39;;;;;;;4.82;2.72;;;23.50;99.90;;;;;;5077532;28;20147;-74
2022/09/10 07:56:10;;;;;;;9.02;4.93;;;23.50;1.00;;;;;;5093917;28;20134;-74
2022/09/10 07:58:39;;;;;;;8.77;3.28;;;23.60;99.90;;;;;;5099003;28;20066;-75
2022/09/10 08:01:12;;;;;;;8.60;3.90;;;23.50;1.00;;;;;;5098427;28;20051;-75
2022/09/10 08:03:40;;;;;;;6.78;3.55;;;23.30;99.90;;;;;;5097927;28;20553;-76
2022/09/10 08:06:11;;;;;;;7.00;3.60;;;23.30;99.90;;;;;;5092294;28;20047;-76
2022/09/10 08:08:40;;;;;;;5.45;2.83;;;23.50;99.90;;;;;;5079874;28;20044;-80
2022/09/10 08:11:15;;;;;;;5.47;2.58;;;23.60;1.30;;;;;;5086895;28;20040;-76
2022/09/10 08:13:45;;;;;;;5.13;3.15;;;23.60;99.90;;;;;;5103741;28;20074;-73
2022/09/10 08:16:16;;;;;;;26.23;18.60;;;23.50;99.90;;;;;;5094693;28;20050;-71
2022/09/10 08:18:45;;;;;;;4.38;2.25;;;23.40;1.00;;;;;;5107136;28;20047;-72
2022/09/10 08:21:13;;;;;;;10.98;6.10;;;23.50;99.90;;;;;;5105821;28;20047;-72
2022/09/10 08:23:42;;;;;;;79.00;57.60;;;23.50;1.00;;;;;;5088752;28;20050;-74
2022/09/10 08:26:10;;;;;;;206.20;163.88;;;23.50;99.90;;;;;;5098221;28;20047;-72
2022/09/10 08:28:40;;;;;;;18.33;10.88;;;23.50;94.30;;;;;;5097572;28;20142;-71
2022/09/10 08:31:11;;;;;;;6.63;1.60;;;23.40;99.90;;;;;;5097611;28;20044;-71
2022/09/10 08:33:49;;;;;;;4.00;2.15;;;23.20;1.00;;;;;;5097762;28;20051;-72
2022/09/10 08:36:18;;;;;;;5.00;2.40;;;23.10;13.20;;;;;;5098182;28;20108;-72
2022/09/10 08:38:46;;;;;;;6.63;3.17;;;23.30;1.00;;;;;;5096747;28;20051;-71
2022/09/10 08:41:27;;;;;;;12.95;6.20;;;23.60;1.00;;;;;;5089832;28;20069;-71
2022/09/10 08:44:02;;;;;;;8.27;3.47;;;23.80;1.00;;;;;;5077594;28;20515;-72
2022/09/10 08:46:33;;;;;;;7.55;2.38;;;23.80;1.00;;;;;;5077633;28;20060;-71
2022/09/10 08:49:11;;;;;;;4.15;1.77;;;24.00;99.90;;;;;;5077511;28;20519;-71
2022/09/10 08:51:44;;;;;;;6.70;3.97;;;23.90;99.90;;;;;;5093361;28;20050;-72
2022/09/10 08:54:17;;;;;;;9.82;3.75;;;23.90;99.90;;;;;;5096943;28;20097;-73
2022/09/10 08:56:45;;;;;;;12.55;3.55;;;23.90;1.00;;;;;;5076816;28;20151;-72
2022/09/10 08:59:21;;;;;;;17.00;4.18;;;24.10;99.90;;;;;;5077074;28;20047;-72
2022/09/10 09:01:54;;;;;;;14.73;3.20;;;24.30;32.40;;;;;;5077257;28;20044;-72
2022/09/10 09:04:37;;;;;;;15.15;5.20;;;24.40;1.00;;;;;;5076399;28;20067;-71
2022/09/10 09:07:14;;;;;;;6.43;2.42;;;24.40;1.00;;;;;;5085469;28;20046;-72
2022/09/10 09:09:43;;;;;;;7.95;4.25;;;24.40;1.00;;;;;;5088846;28;20048;-71
2022/09/10 09:12:20;;;;;;;9.68;3.72;;;24.40;1.00;;;;;;5103819;28;20055;-72
2022/09/10 09:15:05;;;;;;;10.18;2.47;;;24.50;1.00;;;;;;5080388;28;20055;-71
2022/09/10 09:17:49;;;;;;;12.05;4.93;;;24.50;1.00;;;;;;5091351;28;20129;-72
2022/09/10 09:20:25;;;;;;;4.55;2.20;;;24.60;1.00;;;;;;5076552;28;20054;-72
2022/09/10 09:22:54;;;;;;;5.50;2.00;;;24.50;1.00;;;;;;5090997;28;20055;-70
2022/09/10 09:25:33;;;;;;;3.78;1.85;;;24.60;1.00;;;;;;5094922;28;20399;-71
2022/09/10 09:28:04;;;;;;;38.50;5.30;;;24.80;1.00;;;;;;5081743;28;20047;-72
2022/09/10 09:30:48;;;;;;;6.70;3.00;;;24.80;1.00;;;;;;5090579;28;20044;-72
2022/09/10 09:33:21;;;;;;;15.88;4.78;;;24.80;1.00;;;;;;5078222;28;20048;-71
2022/09/10 09:35:52;;;;;;;19.15;5.25;;;25.00;13.40;;;;;;5075898;28;20051;-72
2022/09/10 09:38:23;;;;;;;8.35;2.95;;;25.40;99.90;;;;;;5082578;28;20044;-72
2022/09/10 09:40:55;;;;;;;6.53;3.05;;;25.70;1.00;;;;;;5096231;28;20096;-72
2022/09/10 09:43:32;;;;;;;4.43;2.00;;;25.90;1.00;;;;;;5105697;28;20077;-72
2022/09/10 09:46:03;;;;;;;5.50;2.30;;;26.00;1.00;;;;;;5110803;28;20047;-72
2022/09/10 09:48:39;;;;;;;5.15;2.83;;;25.60;99.90;;;;;;5095855;28;20047;-71
2022/09/10 09:51:10;;;;;;;7.45;2.35;;;25.20;1.00;;;;;;5100694;28;20044;-72
2022/09/10 09:53:39;;;;;;;4.82;2.42;;;24.90;1.00;;;;;;5109623;28;20108;-71
2022/09/10 09:56:15;;;;;;;16.30;3.00;;;24.80;1.00;;;;;;5113945;28;20039;-71
2022/09/10 09:58:48;;;;;;;3.78;1.60;;;24.30;99.90;;;;;;5108999;28;20039;-71
2022/09/10 10:01:20;;;;;;;4.47;1.38;;;24.00;1.00;;;;;;5095530;28;20050;-71
2022/09/10 10:03:57;;;;;;;19.90;3.85;;;23.90;1.00;;;;;;5092541;28;20056;-70
2022/09/10 10:06:26;;;;;;;7.95;3.75;;;24.00;1.00;;;;;;5093729;28;20063;-70
2022/09/10 10:08:57;;;;;;;8.35;1.67;;;24.50;1.00;;;;;;5099783;28;20078;-71
2022/09/10 10:11:40;;;;;;;5.90;2.17;;;24.70;1.00;;;;;;5113149;28;20505;-71
2022/09/10 10:14:23;;;;;;;4.90;2.38;;;25.00;1.00;;;;;;5102288;28;20108;-70
2022/09/10 10:16:54;;;;;;;5.25;2.00;;;25.20;68.00;;;;;;5102923;27;20054;-68
2022/09/10 10:19:31;;;;;;;6.75;2.60;;;25.50;99.90;;;;;;5102594;28;20047;-70
2022/09/10 10:22:20;;;;;;;3.63;1.80;;;25.50;1.00;;;;;;5093198;28;20085;-71
2022/09/10 10:24:50;;;;;;;7.72;2.85;;;25.30;47.30;;;;;;5075712;28;20056;-70
2022/09/10 10:27:21;;;;;;;6.20;2.08;;;25.10;99.90;;;;;;5114048;28;20491;-69
2022/09/10 10:29:57;;;;;;;6.93;2.10;;;25.00;1.00;;;;;;5115004;28;20043;-70
2022/09/10 10:32:40;;;;;;;7.55;3.30;;;25.20;99.90;;;;;;5112116;28;20164;-71
2022/09/10 10:35:31;;;;;;;7.75;4.88;;;25.40;99.90;;;;;;5114531;28;20046;-70
2022/09/10 10:38:19;;;;;;;7.88;4.63;;;25.40;1.00;;;;;;5098535;28;20048;-71
2022/09/10 10:40:55;;;;;;;7.47;5.57;;;25.70;1.00;;;;;;5107606;28;20557;-70
2022/09/10 10:43:36;;;;;;;2.65;1.65;;;25.90;1.00;;;;;;5104636;28;20412;-70
2022/09/10 10:46:05;;;;;;;4.35;1.77;;;25.90;1.00;;;;;;5094294;28;20040;-71
2022/09/10 10:48:53;;;;;;;3.42;1.75;;;25.90;99.90;;;;;;5093169;28;20035;-71
2022/09/10 10:51:30;;;;;;;4.75;3.15;;;26.10;99.90;;;;;;5094283;28;20048;-70
2022/09/10 10:54:10;;;;;;;10.25;4.00;;;26.20;99.90;;;;;;5092699;28;20048;-71
2022/09/10 10:56:41;;;;;;;5.18;3.03;;;26.10;20.30;;;;;;5077157;28;20089;-71
2022/09/10 10:59:25;;;;;;;5.85;3.65;;;25.90;1.00;;;;;;5101124;28;20502;-69
2022/09/10 11:02:00;;;;;;;6.93;3.85;;;25.70;1.00;;;;;;5093882;28;20414;-71
2022/09/10 11:04:38;;;;;;;5.43;2.45;;;25.40;1.00;;;;;;5089527;28;20050;-70
2022/09/10 11:07:11;;;;;;;6.32;2.70;;;25.40;1.00;;;;;;5111238;28;20068;-72
2022/09/10 11:09:44;;;;;;;5.45;3.40;;;25.50;1.00;;;;;;5103511;28;20502;-70
2022/09/10 11:12:18;;;;;;;6.38;3.83;;;25.80;1.00;;;;;;5107073;28;20071;-71
2022/09/10 11:14:50;;;;;;;7.55;3.20;;;25.80;1.00;;;;;;5109389;28;20094;-70
2022/09/10 11:17:23;;;;;;;4.78;2.47;;;25.70;1.00;;;;;;5108380;28;20141;-70
2022/09/10 11:20:01;;;;;;;4.25;2.15;;;25.40;1.00;;;;;;5104316;28;20052;-68
2022/09/10 11:22:31;;;;;;;5.07;2.38;;;25.10;1.00;;;;;;5112819;28;20093;-69
2022/09/10 11:25:02;;;;;;;4.82;2.28;;;24.90;1.00;;;;;;5104706;28;20375;-69
2022/09/10 11:27:36;;;;;;;4.53;1.65;;;24.90;99.90;;;;;;5101910;28;20461;-69
2022/09/10 11:30:06;;;;;;;6.35;2.17;;;24.90;1.00;;;;;;5119616;27;20047;-73
2022/09/10 11:32:38;;;;;;;4.10;1.67;;;24.80;1.00;;;;;;5101339;28;20444;-70
2022/09/10 11:35:17;;;;;;;3.78;1.40;;;24.80;1.00;;;;;;5112510;28;20168;-70
2022/09/10 11:37:53;;;;;;;5.18;2.65;;;24.60;1.00;;;;;;5116843;28;20036;-70
2022/09/10 11:40:27;;;;;;;4.60;2.03;;;24.70;1.00;;;;;;5116119;28;20070;-70
2022/09/10 11:43:01;;;;;;;4.70;1.98;;;24.60;1.00;;;;;;5114029;28;20119;-69
2022/09/10 11:45:36;;;;;;;7.10;2.40;;;24.60;1.00;;;;;;5107493;28;20040;-70
2022/09/10 11:48:16;;;;;;;6.68;2.70;;;24.70;1.00;;;;;;5117088;28;20100;-69
2022/09/10 11:50:50;;;;;;;5.63;2.30;;;24.90;22.50;;;;;;5088077;28;20051;-70
2022/09/10 11:53:20;;;;;;;4.68;2.00;;;24.90;99.90;;;;;;5098162;28;20050;-69
2022/09/10 11:56:11;;;;;;;5.22;2.20;;;25.00;1.00;;;;;;5116672;28;20032;-69
2022/09/10 11:58:47;;;;;;;4.93;2.58;;;25.10;1.00;;;;;;5083493;28;20035;-69
2022/09/10 12:01:27;;;;;;;5.47;2.58;;;25.30;99.90;;;;;;5116417;28;20398;-72
2022/09/10 12:04:13;;;;;;;5.93;2.78;;;25.40;1.00;;;;;;5104285;28;20044;-71
2022/09/10 12:06:52;;;;;;;8.35;2.95;;;25.70;99.90;;;;;;5116530;28;20039;-70
2022/09/10 12:09:25;;;;;;;8.73;4.00;;;26.00;1.00;;;;;;5108741;28;20067;-70
2022/09/10 12:12:04;;;;;;;6.20;2.67;;;26.20;1.00;;;;;;5109230;28;20097;-70
2022/09/10 12:14:32;;;;;;;6.80;2.60;;;26.20;1.00;;;;;;5095596;28;20043;-70
2022/09/10 12:17:04;;;;;;;5.03;2.70;;;26.00;1.00;;;;;;5095710;28;20102;-70
2022/09/10 12:19:36;;;;;;;8.60;3.65;;;25.80;1.00;;;;;;5095965;28;20044;-69
2022/09/10 12:22:08;;;;;;;8.52;3.80;;;25.70;1.00;;;;;;5095549;28;20130;-70
2022/09/10 12:24:38;;;;;;;6.78;3.33;;;25.50;1.00;;;;;;5095810;28;20044;-70
2022/09/10 12:27:08;;;;;;;8.85;2.40;;;25.50;1.00;;;;;;5077605;28;20434;-69
2022/09/10 12:29:39;;;;;;;4.00;1.88;;;25.50;1.00;;;;;;5095499;28;20568;-69
2022/09/10 12:32:37;;;;;;;6.78;2.65;;;25.10;1.00;;;;;;5095671;28;20040;-68
2022/09/10 12:35:44;;;;;;;5.22;2.90;;;25.20;1.00;;;;;;5095617;28;20097;-69
2022/09/10 12:39:16;;;;;;;4.78;2.97;;;25.30;1.00;;;;;;5096036;28;20112;-69
2022/09/10 12:42:01;;;;;;;4.07;1.83;;;25.40;1.00;;;;;;5064784;28;20527;-68
2022/09/10 12:44:46;;;;;;;2.97;1.38;;;25.60;1.00;;;;;;5097836;28;20447;-70
2022/09/10 12:47:38;;;;;;;3.63;1.60;;;25.60;1.00;;;;;;5097987;28;20438;-70
2022/09/10 12:50:17;;;;;;;3.97;1.73;;;25.40;1.00;;;;;;5098239;28;20040;-69
2022/09/10 12:53:00;;;;;;;6.10;2.15;;;25.40;1.00;;;;;;5097389;28;20101;-70
2022/09/10 12:55:41;;;;;;;2.97;1.85;;;25.40;1.00;;;;;;5096811;28;20063;-70
2022/09/10 12:58:22;;;;;;;2.97;1.65;;;25.30;1.00;;;;;;5095476;28;20119;-70
2022/09/10 13:01:07;;;;;;;4.90;1.80;;;24.90;1.00;;;;;;5095474;28;20048;-70
2022/09/10 13:03:34;;;;;;;4.60;2.00;;;24.80;1.00;;;;;;5095973;28;20097;-69
2022/09/10 13:06:05;;;;;;;4.05;1.60;;;24.70;99.90;;;;;;5096473;28;20392;-70
2022/09/10 13:08:40;;;;;;;3.83;1.88;;;24.50;1.00;;;;;;5095306;28;20032;-69